| time (UTC) | temp F | wind direction | speed MPH | gust MPH | rain 1hr in | rain 24hr in | rain mn in | humidity % | barometer mb |
| 20260905211555 | 86 | 122 | 0.0 | 0.0 | 0.00 | 0.00 | 0.00 | 72 | 1005.3 |
| 20260905210053 | 84 | 115 | 0.0 | 2.0 | 0.00 | 0.00 | 0.00 | 76 | 1005.4 |
| 20260905204537 | 86 | 152 | 0.0 | 1.0 | 0.00 | 0.00 | 0.00 | 72 | 1005.6 |
| 20260905203020 | 87 | 285 | 0.0 | 2.0 | 0.00 | 0.00 | 0.00 | 67 | 1005.9 |
| 20260905201518 | 88 | 9 | 0.0 | 2.0 | 0.00 | 0.00 | 0.00 | 67 | 1005.6 |
| 20260905200128 | 87 | 296 | 0.0 | 0.0 | 0.00 | 0.00 | 0.00 | 69 | 1005.6 |
| 20260905194601 | 88 | 297 | 0.0 | 0.0 | 0.00 | 0.00 | 0.00 | 67 | 1005.9 |
| 20260905193037 | 90 | 48 | 0.0 | 1.0 | 0.00 | 0.00 | 0.00 | 62 | 1006.2 |
| 20260905191541 | 92 | 356 | 0.0 | 3.0 | 0.00 | 0.00 | 0.00 | 58 | 1006.5 |
| 20260905190019 | 93 | 288 | 0.0 | 1.0 | 0.00 | 0.00 | 0.00 | 57 | 1006.4 |
| 20260905184517 | 95 | 25 | 0.0 | 2.0 | 0.00 | 0.00 | 0.00 | 54 | 1006.5 |
| 20260905183059 | 94 | 325 | 0.0 | 2.0 | 0.00 | 0.00 | 0.00 | 52 | 1006.7 |
| 20260905181558 | 94 | 46 | 0.0 | 3.0 | 0.00 | 0.00 | 0.00 | 57 | 1006.7 |
| 20260905180040 | 92 | 60 | 0.0 | 5.0 | 0.00 | 0.00 | 0.00 | 54 | 1006.6 |
| 20260905174538 | 94 | 66 | 0.0 | 3.0 | 0.00 | 0.00 | 0.00 | 54 | 1006.7 |
| 20260905173017 | 93 | 312 | 0.0 | 2.0 | 0.00 | 0.00 | 0.00 | 56 | 1006.8 |
| 20260905171533 | 92 | 242 | 0.0 | 1.0 | 0.00 | 0.00 | 0.00 | 55 | 1006.8 |
| 20260905170058 | 90 | 82 | 0.0 | 3.0 | 0.00 | 0.00 | 0.00 | 60 | 1007.3 |
| 20260905164553 | 89 | 319 | 0.0 | 2.0 | 0.00 | 0.00 | 0.00 | 60 | 1007.2 |
| 20260905163033 | 87 | 101 | 0.0 | 3.0 | 0.00 | 0.00 | 0.00 | 62 | 1007.3 |
| 20260905161538 | 85 | 95 | 3.0 | 4.0 | 0.00 | 0.00 | 0.00 | 65 | 1007.3 |
| 20260905160026 | 85 | 301 | 1.0 | 3.0 | 0.00 | 0.00 | 0.00 | 68 | 1007.4 |
| 20260905154521 | 85 | 108 | 2.0 | 4.0 | 0.00 | 0.00 | 0.00 | 64 | 1007.5 |
| 20260905153053 | 84 | 255 | 0.0 | 2.0 | 0.00 | 0.00 | 0.00 | 68 | 1007.5 |
| 20260905151548 | 81 | 82 | 0.0 | 4.0 | 0.00 | 0.00 | 0.00 | 72 | 1007.1 |
| 20260905150033 | 79 | 108 | 2.0 | 6.0 | 0.00 | 0.00 | 0.00 | 74 | 1006.6 |
| 20260905144539 | 77 | 76 | 0.0 | 5.0 | 0.00 | 0.00 | 0.00 | 78 | 1006.7 |
| 20260905143027 | 76 | 108 | 2.0 | 7.0 | 0.00 | 0.00 | 0.00 | 80 | 1006.9 |
| 20260905141525 | 75 | 52 | 1.0 | 10.0 | 0.00 | 0.00 | 0.00 | 82 | 1007.2 |
| 20260905140027 | 74 | 110 | 2.0 | 6.0 | 0.00 | 0.00 | 0.00 | 83 | 1007.9 |
| 20260905134522 | 73 | 109 | 1.0 | 3.0 | 0.00 | 0.00 | 0.00 | 85 | 1008.4 |
| 20260905133021 | 72 | 110 | 0.0 | 2.0 | 0.00 | 0.00 | 0.00 | 85 | 1009.2 |
| 20260905131521 | 72 | 143 | 0.0 | 1.0 | 0.00 | 0.00 | 0.00 | 86 | 1009.2 |
| 20260905130003 | 71 | 124 | 0.0 | 1.0 | 0.00 | 0.00 | 0.00 | 86 | 1009.3 |
| 20260905124503 | 70 | 172 | 0.0 | 4.0 | 0.00 | 0.00 | 0.00 | 87 | 1009.2 |
| 20260905123044 | 69 | 89 | 1.0 | 4.0 | 0.00 | 0.00 | 0.00 | 87 | 1009.0 |
| 20260905121543 | 69 | 91 | 0.0 | 7.0 | 0.00 | 0.00 | 0.00 | 87 | 1009.1 |
| 20260905120025 | 0 | 0.0 | 0.0 | 0.00 | 0.00 | 0.00 | 1008.9 | ||
| 20260905114519 | 0 | 0.0 | 0.0 | 0.00 | 0.00 | 0.00 | 1008.6 | ||
| 20260905113058 | 0 | 0.0 | 0.0 | 0.00 | 0.00 | 0.00 | 1009.2 | ||
| 20260905111606 | 0 | 0.0 | 0.0 | 0.00 | 0.00 | 0.00 | 1009.5 | ||
| 20260905110033 | 0 | 0.0 | 0.0 | 0.00 | 0.00 | 0.00 | 1009.1 | ||
| 20260905104540 | 0 | 0.0 | 0.0 | 0.00 | 0.00 | 0.00 | 1009.0 | ||
| 20260905103005 | 0 | 0.0 | 0.0 | 0.00 | 0.00 | 0.00 | 1008.6 | ||
| 20260905101601 | 0 | 0.0 | 0.0 | 0.00 | 0.00 | 0.00 | 1006.9 | ||
| 20260905100048 | 0 | 0.0 | 0.0 | 0.00 | 0.00 | 0.00 | 1006.9 | ||
| 20260905094559 | 0 | 0.0 | 0.0 | 0.00 | 0.00 | 0.00 | 1006.7 | ||
| 20260905093045 | 0 | 0.0 | 0.0 | 0.00 | 0.00 | 0.00 | 1006.5 | ||
| 20260905091547 | 0 | 0.0 | 0.0 | 0.00 | 0.00 | 0.00 | 1006.5 | ||
| 20260905090043 | 0 | 0.0 | 0.0 | 0.00 | 0.00 | 0.00 | 1006.5 | ||
| 20260905084545 | 68 | 307 | 0.0 | 0.0 | 0.00 | 0.00 | 0.00 | 87 | 1006.7 |
| 20260905083039 | 69 | 307 | 0.0 | 0.0 | 0.00 | 0.00 | 0.00 | 87 | 1006.6 |
| 20260905081543 | 69 | 307 | 0.0 | 0.0 | 0.00 | 0.00 | 0.00 | 87 | 1006.6 |
| 20260905080034 | 69 | 307 | 0.0 | 0.0 | 0.00 | 0.00 | 0.00 | 87 | 1006.6 |
| 20260905074521 | 69 | 307 | 0.0 | 0.0 | 0.00 | 0.00 | 0.00 | 87 | 1006.5 |
| 20260905073010 | 69 | 307 | 0.0 | 0.0 | 0.00 | 0.00 | 0.00 | 87 | 1006.5 |
| 20260905071502 | 69 | 307 | 0.0 | 0.0 | 0.00 | 0.00 | 0.00 | 87 | 1006.3 |
| 20260905070047 | 69 | 307 | 0.0 | 0.0 | 0.00 | 0.00 | 0.00 | 87 | 1006.5 |
| 20260905064548 | 70 | 307 | 0.0 | 0.0 | 0.00 | 0.00 | 0.00 | 87 | 1006.6 |
| 20260905063021 | 70 | 307 | 0.0 | 0.0 | 0.00 | 0.00 | 0.00 | 87 | 1007.0 |
| 20260905061522 | 70 | 307 | 0.0 | 0.0 | 0.00 | 0.00 | 0.00 | 87 | 1007.1 |
| 20260905060002 | 70 | 307 | 0.0 | 0.0 | 0.00 | 0.00 | 0.00 | 88 | 1007.3 |
| 20260905054559 | 70 | 307 | 0.0 | 0.0 | 0.00 | 0.00 | 0.00 | 88 | 1007.5 |
| 20260905053041 | 70 | 307 | 0.0 | 0.0 | 0.00 | 0.00 | 0.00 | 88 | 1007.7 |
| 20260905051544 | 70 | 307 | 0.0 | 0.0 | 0.00 | 0.00 | 0.00 | 88 | 1008.1 |
| 20260905050024 | 71 | 307 | 0.0 | 0.0 | 0.00 | 0.00 | 0.00 | 88 | 1008.0 |
| 20260905044525 | 71 | 307 | 0.0 | 0.0 | 0.00 | 0.00 | 0.00 | 87 | 1008.0 |
| 20260905043004 | 71 | 307 | 0.0 | 0.0 | 0.00 | 0.00 | 0.00 | 87 | 1008.1 |
| 20260905041505 | 71 | 306 | 0.0 | 0.0 | 0.00 | 0.00 | 0.00 | 87 | 1008.0 |
| 20260905040113 | 71 | 307 | 0.0 | 0.0 | 0.00 | 0.00 | 0.00 | 87 | 1008.0 |
| 20260905034549 | 71 | 307 | 0.0 | 0.0 | 0.00 | 0.00 | 0.00 | 87 | 1008.0 |
| 20260905033050 | 71 | 307 | 0.0 | 0.0 | 0.00 | 0.00 | 0.00 | 87 | 1007.9 |
| 20260905031547 | 72 | 307 | 0.0 | 0.0 | 0.00 | 0.00 | 0.00 | 87 | 1007.8 |
| 20260905030046 | 72 | 307 | 0.0 | 0.0 | 0.00 | 0.00 | 0.00 | 87 | 1007.8 |
| 20260905024546 | 72 | 307 | 0.0 | 0.0 | 0.00 | 0.00 | 0.00 | 87 | 1007.8 |
| 20260905023044 | 72 | 307 | 0.0 | 0.0 | 0.00 | 0.00 | 0.00 | 87 | 1007.8 |
| 20260905021547 | 73 | 307 | 0.0 | 0.0 | 0.00 | 0.00 | 0.00 | 87 | 1007.8 |
| 20260905020021 | 73 | 307 | 0.0 | 0.0 | 0.00 | 0.00 | 0.00 | 86 | 1007.6 |
| 20260905014521 | 73 | 307 | 0.0 | 0.0 | 0.00 | 0.00 | 0.00 | 86 | 1007.7 |
| 20260905013118 | 73 | 307 | 0.0 | 0.0 | 0.00 | 0.00 | 0.00 | 85 | 1007.7 |
| 20260905011557 | 74 | 307 | 0.0 | 0.0 | 0.00 | 0.00 | 0.00 | 85 | 1007.5 |
| 20260905010055 | 75 | 307 | 0.0 | 0.0 | 0.00 | 0.00 | 0.00 | 84 | 1007.1 |
| 20260905004536 | 75 | 307 | 0.0 | 0.0 | 0.00 | 0.00 | 0.00 | 83 | 1007.2 |
| 20260905003035 | 76 | 307 | 0.0 | 0.0 | 0.00 | 0.00 | 0.00 | 82 | 1006.9 |
| 20260905001517 | 77 | 307 | 0.0 | 0.0 | 0.00 | 0.00 | 0.00 | 80 | 1006.7 |
| 20260905000030 | 79 | 307 | 0.0 | 0.0 | 0.00 | 0.00 | 0.00 | 77 | 1006.9 |
| 20260904234559 | 79 | 307 | 0.0 | 0.0 | 0.00 | 0.00 | 0.00 | 76 | 1007.0 |
| 20260904233106 | 80 | 306 | 0.0 | 0.0 | 0.00 | 0.00 | 0.00 | 76 | 1007.1 |
| 20260904231540 | 82 | 307 | 0.0 | 0.0 | 0.00 | 0.00 | 0.00 | 76 | 1006.9 |
| 20260904230140 | 83 | 307 | 0.0 | 0.0 | 0.00 | 0.00 | 0.00 | 72 | 1006.6 |
| 20260904224527 | 83 | 306 | 0.0 | 0.0 | 0.00 | 0.00 | 0.00 | 72 | 1006.3 |
| 20260904223021 | 83 | 307 | 0.0 | 0.0 | 0.00 | 0.00 | 0.00 | 69 | 1006.3 |
| 20260904221501 | 84 | 307 | 0.0 | 1.0 | 0.00 | 0.00 | 0.00 | 66 | 1006.6 |
| 20260904220114 | 85 | 290 | 0.0 | 1.0 | 0.00 | 0.00 | 0.00 | 63 | 1007.6 |
| 20260904214544 | 87 | 276 | 1.0 | 5.0 | 0.00 | 0.00 | 0.00 | 60 | 1007.8 |
| 20260904213043 | 92 | 360 | 1.0 | 9.0 | 0.00 | 0.00 | 0.00 | 56 | 1007.8 |